Time;durP1;ratioP1;P1;durP2;ratioP2;P2;SDS_P1;SDS_P2;PMS_P1;PMS_P2;Temp;Humidity;BMP_temperature;BMP_pressure;BME280_temperature;BME280_humidity;BME280_pressure;Samples;Min_cycle;Max_cycle;Signal;HPM_P1;HPM_P2
2023/07/17 00:01:43;;;;;;;4.03;1.47;;;22.50;99.90;;;22.67;48.55;101159.00;4883701;28;97135;-43
2023/07/17 00:04:10;;;;;;;3.17;1.50;;;22.40;99.90;;;22.69;49.10;101165.09;4888059;28;97105;-43
2023/07/17 00:06:37;;;;;;;3.13;1.40;;;22.40;99.90;;;22.60;49.07;101176.59;4895395;28;97492;-42
2023/07/17 00:09:02;;;;;;;4.90;1.50;;;22.30;99.90;;;22.60;49.97;101179.28;4892781;28;97144;-44
2023/07/17 00:11:28;;;;;;;4.53;1.60;;;22.30;99.90;;;22.63;49.31;101178.19;4885781;28;118843;-42
2023/07/17 00:13:54;;;;;;;2.97;1.63;;;22.30;99.90;;;22.60;49.53;101181.97;4879167;28;125172;-45
2023/07/17 00:16:20;;;;;;;2.03;1.27;;;22.30;99.90;;;22.59;49.79;101185.63;4881632;28;97365;-44
2023/07/17 00:18:46;;;;;;;5.17;1.73;;;22.20;99.90;;;22.58;49.74;101189.31;4874254;28;97930;-43
2023/07/17 00:21:12;;;;;;;2.83;1.57;;;22.30;99.90;;;22.58;49.72;101183.94;4879760;28;110342;-43
2023/07/17 00:23:38;;;;;;;2.90;1.23;;;22.30;99.90;;;22.61;49.87;101182.84;4883343;28;97694;-45
2023/07/17 00:26:04;;;;;;;3.63;1.53;;;22.30;99.90;;;22.58;49.95;101173.19;4880163;28;98160;-46
2023/07/17 00:28:31;;;;;;;1.10;1.00;;;22.30;99.90;;;22.57;50.02;101166.09;4887971;28;96945;-46
2023/07/17 00:30:57;;;;;;;3.00;1.20;;;22.30;99.90;;;22.60;49.80;101165.84;4882832;28;98363;-45
2023/07/17 00:33:23;;;;;;;5.07;1.33;;;22.40;99.90;;;22.63;49.84;101170.13;4875698;28;102676;-45
2023/07/17 00:35:48;;;;;;;2.67;1.03;;;22.40;99.90;;;22.65;49.84;101168.16;4886643;28;97525;-43
2023/07/17 00:38:14;;;;;;;1.70;1.00;;;22.40;99.90;;;22.67;49.88;101177.81;4892164;28;98386;-45
2023/07/17 00:40:40;;;;;;;2.97;1.63;;;22.40;99.90;;;22.68;50.04;101173.28;4892741;28;103438;-42
2023/07/17 00:43:12;;;;;;;4.00;1.73;;;22.50;99.90;;;22.60;50.38;101181.13;4890536;28;98203;-42
2023/07/17 00:45:41;;;;;;;3.40;1.80;;;22.30;99.90;;;22.56;50.35;101199.28;4897334;28;97342;-45
2023/07/17 00:48:09;;;;;;;2.33;1.40;;;22.20;99.90;;;22.50;50.21;101208.69;4887974;28;97525;-43
2023/07/17 00:50:35;;;;;;;2.67;1.50;;;22.20;99.90;;;22.50;50.40;101202.47;4896503;28;97614;-42
2023/07/17 00:53:03;;;;;;;3.20;1.50;;;22.20;99.90;;;22.41;50.42;101208.53;4896026;28;97271;-42
2023/07/17 00:55:30;;;;;;;1.93;1.33;;;22.10;99.90;;;22.40;49.45;101201.47;4898139;28;97283;-43
2023/07/17 00:57:56;;;;;;;1.77;1.30;;;22.10;99.90;;;22.39;49.04;101210.50;4898773;28;97271;-44
2023/07/17 01:00:23;;;;;;;2.57;1.03;;;22.10;99.90;;;22.31;49.21;101212.94;4898297;28;107263;-42
2023/07/17 01:02:52;;;;;;;2.37;0.97;;;22.00;99.90;;;22.30;49.84;101217.44;4893727;28;97228;-45
2023/07/17 01:05:18;;;;;;;4.20;1.10;;;22.00;99.90;;;22.29;49.42;101220.25;4904957;28;97111;-44
2023/07/17 01:07:44;;;;;;;2.10;1.00;;;22.00;99.90;;;22.20;48.81;101233.41;4900225;28;97348;-43
2023/07/17 01:10:10;;;;;;;3.40;1.10;;;21.90;99.90;;;22.21;48.85;101240.47;4902002;28;97942;-45
2023/07/17 01:12:37;;;;;;;3.23;1.30;;;21.90;99.90;;;22.18;49.17;101246.09;4888575;28;104971;-44
2023/07/17 01:15:06;;;;;;;1.53;1.10;;;21.80;99.90;;;22.14;50.05;101247.31;4899783;28;97009;-44
2023/07/17 01:17:32;;;;;;;1.80;1.07;;;21.80;99.90;;;22.14;49.65;101254.50;4906436;28;97086;-45
2023/07/17 01:19:58;;;;;;;3.33;1.13;;;21.80;99.90;;;22.15;49.47;101246.34;4894087;28;97785;-44
2023/07/17 01:22:30;;;;;;;1.63;0.80;;;21.90;99.90;;;22.20;49.59;101244.16;4900557;28;97395;-46
2023/07/17 01:24:56;;;;;;;1.50;0.67;;;21.90;99.90;;;22.16;49.60;101245.34;4901569;28;97871;-43
2023/07/17 01:27:21;;;;;;;2.67;1.07;;;21.90;99.90;;;22.20;50.20;101249.53;4901911;28;98866;-43
2023/07/17 01:29:47;;;;;;;3.47;0.90;;;21.90;99.90;;;22.21;49.63;101251.22;4892961;28;116798;-46
2023/07/17 01:32:13;;;;;;;1.23;0.73;;;21.90;99.90;;;22.26;50.95;101249.03;4899725;28;98209;-44
2023/07/17 01:34:41;;;;;;;1.20;0.80;;;22.00;99.90;;;22.32;50.41;101233.44;4894920;28;110706;-47
2023/07/17 01:37:10;;;;;;;1.63;0.60;;;22.00;99.90;;;22.35;50.52;101231.38;4899389;28;97417;-46
2023/07/17 01:39:35;;;;;;;1.70;0.90;;;22.10;99.90;;;22.41;50.60;101235.41;4897339;28;98287;-42
2023/07/17 01:42:01;;;;;;;3.47;0.90;;;22.20;99.90;;;22.40;50.11;101244.47;4898755;28;125360;-43
2023/07/17 01:44:28;;;;;;;1.77;0.97;;;22.10;99.90;;;22.38;50.05;101249.94;4895140;28;98384;-44
2023/07/17 01:46:57;;;;;;;2.93;1.47;;;22.10;99.90;;;22.34;49.72;101255.69;4895994;28;97552;-42
2023/07/17 01:49:23;;;;;;;1.13;0.87;;;22.10;99.90;;;22.32;49.99;101273.75;4892388;28;98241;-42
2023/07/17 01:51:49;;;;;;;1.30;0.90;;;22.00;99.90;;;22.30;50.01;101273.03;4902218;28;100133;-44
2023/07/17 01:54:15;;;;;;;1.47;0.70;;;21.90;99.90;;;22.26;50.21;101270.53;4900633;28;97287;-44
2023/07/17 01:56:41;;;;;;;1.97;0.80;;;21.90;99.90;;;22.31;50.43;101266.66;4904708;28;97294;-46
2023/07/17 01:59:06;;;;;;;2.57;1.07;;;22.00;99.90;;;22.31;49.75;101267.53;4896728;28;98088;-42
2023/07/17 02:01:33;;;;;;;1.60;0.90;;;22.00;99.90;;;22.25;49.68;101266.13;4898328;28;97043;-45
2023/07/17 02:04:00;;;;;;;2.30;0.80;;;22.00;99.90;;;22.27;50.49;101260.66;4908402;28;97327;-44
2023/07/17 02:06:26;;;;;;;1.30;0.80;;;22.00;99.90;;;22.31;49.53;101266.66;4897990;28;97574;-42
2023/07/17 02:08:52;;;;;;;4.37;1.20;;;22.00;99.90;;;22.32;49.91;101252.25;4901448;28;98249;-43
2023/07/17 02:11:18;;;;;;;3.40;0.77;;;22.00;99.90;;;22.35;50.14;101246.66;4896323;28;97972;-43
2023/07/17 02:13:43;;;;;;;2.97;0.90;;;22.10;99.90;;;22.40;50.23;101252.53;4902313;28;97241;-42
2023/07/17 02:16:09;;;;;;;1.10;0.70;;;22.10;99.90;;;22.42;48.93;101264.00;4901733;28;97707;-43
2023/07/17 02:18:35;;;;;;;1.50;0.87;;;22.10;99.90;;;22.40;49.98;101268.66;4902875;28;107247;-44
2023/07/17 02:21:01;;;;;;;1.50;0.60;;;22.10;99.90;;;22.39;49.57;101269.63;4897394;28;99199;-43
2023/07/17 02:23:26;;;;;;;1.57;0.83;;;22.10;99.90;;;22.40;50.01;101265.97;4917485;28;99241;-43
2023/07/17 02:25:52;;;;;;;1.90;0.77;;;22.10;99.90;;;22.39;49.75;101256.19;4901236;28;106846;-45
2023/07/17 02:28:18;;;;;;;3.37;1.03;;;22.10;99.90;;;22.39;50.00;101269.63;4893177;28;103579;-42
2023/07/17 02:30:44;;;;;;;1.53;1.03;;;22.10;99.90;;;22.39;49.98;101281.22;4897039;28;97580;-48
2023/07/17 02:33:09;;;;;;;2.27;1.00;;;22.10;99.90;;;22.41;50.29;101273.03;4907679;28;97393;-44
2023/07/17 02:35:35;;;;;;;1.83;0.90;;;22.10;99.90;;;22.40;49.95;101266.81;4900986;28;97221;-42
2023/07/17 02:38:01;;;;;;;3.47;1.10;;;22.10;99.90;;;22.38;50.74;101267.91;4904790;28;110081;-42
2023/07/17 02:40:27;;;;;;;1.23;0.73;;;22.10;99.90;;;22.39;50.78;101269.63;4909078;28;102034;-43
2023/07/17 02:42:52;;;;;;;1.73;1.00;;;22.10;99.90;;;22.38;50.06;101268.75;4897429;28;97481;-45
2023/07/17 02:45:18;;;;;;;1.80;1.00;;;22.10;99.90;;;22.33;49.96;101267.41;4900849;28;97047;-44
2023/07/17 02:47:44;;;;;;;2.77;1.33;;;22.00;99.90;;;22.31;49.99;101262.16;4889826;28;125521;-42
2023/07/17 02:50:10;;;;;;;2.63;1.00;;;22.00;99.90;;;22.32;50.98;101263.00;4898896;28;107287;-45
2023/07/17 02:52:36;;;;;;;1.10;0.70;;;22.00;99.90;;;22.31;49.82;101262.16;4902983;28;97042;-43
2023/07/17 02:55:06;;;;;;;2.53;0.83;;;22.10;99.90;;;22.35;50.77;101257.41;4892011;28;97381;-44
2023/07/17 02:57:34;;;;;;;1.67;0.90;;;22.10;99.90;;;22.35;49.79;101257.41;4900032;28;101508;-42
2023/07/17 03:00:05;;;;;;;1.80;0.60;;;22.00;99.90;;;22.35;50.26;101260.09;4905633;28;102650;-43
2023/07/17 03:02:30;;;;;;;2.13;0.87;;;22.10;99.90;;;22.32;49.15;101266.56;4901097;28;97719;-45
2023/07/17 03:04:56;;;;;;;1.87;0.90;;;22.00;99.90;;;22.33;50.64;101270.09;4904743;28;98829;-43
2023/07/17 03:07:22;;;;;;;1.10;0.73;;;22.10;99.90;;;22.33;50.05;101272.78;4901310;28;118078;-43
2023/07/17 03:09:48;;;;;;;3.97;0.93;;;22.00;99.90;;;22.39;50.67;101275.00;4903588;28;97092;-43
2023/07/17 03:12:13;;;;;;;2.90;0.60;;;22.10;99.90;;;22.40;50.52;101285.63;4897237;28;97480;-45
2023/07/17 03:14:39;;;;;;;2.77;0.70;;;22.10;99.90;;;22.37;48.96;101282.31;4903089;28;97567;-43
2023/07/17 03:17:05;;;;;;;1.97;1.03;;;22.10;99.90;;;22.37;50.78;101276.94;4905283;28;111616;-42
2023/07/17 03:19:32;;;;;;;2.03;1.10;;;22.10;99.90;;;22.36;50.65;101272.56;4903258;28;98376;-44
2023/07/17 03:21:57;;;;;;;2.03;1.07;;;22.10;99.90;;;22.32;49.36;101276.44;4885270;28;97720;-45
2023/07/17 03:24:23;;;;;;;1.00;0.73;;;22.00;99.90;;;22.32;49.02;101268.38;4908766;28;105798;-43
2023/07/17 03:26:49;;;;;;;0.83;0.73;;;22.00;99.90;;;22.35;49.22;101268.16;4896755;28;97550;-42
2023/07/17 03:29:14;;;;;;;1.73;0.83;;;22.00;99.90;;;22.33;48.92;101270.09;4899949;28;96892;-42
2023/07/17 03:31:40;;;;;;;0.97;0.47;;;22.00;99.90;;;22.35;50.42;101268.16;4901951;28;102978;-43
2023/07/17 03:34:06;;;;;;;0.93;0.63;;;22.00;99.90;;;22.35;50.60;101268.16;4904754;28;97291;-43
2023/07/17 03:36:32;;;;;;;3.67;0.77;;;22.10;99.90;;;22.37;49.21;101276.94;4894841;28;97150;-44
2023/07/17 03:38:58;;;;;;;1.03;0.80;;;22.10;99.90;;;22.31;48.65;101280.97;4900029;28;97410;-42
2023/07/17 03:41:24;;;;;;;1.53;0.73;;;22.00;99.90;;;22.27;49.06;101272.25;4903092;28;97105;-43
2023/07/17 03:43:49;;;;;;;1.67;0.80;;;22.00;99.90;;;22.26;50.61;101278.59;4893278;28;97049;-44
2023/07/17 03:46:15;;;;;;;1.47;0.60;;;21.90;99.90;;;22.31;50.96;101282.78;4904855;28;97537;-43
2023/07/17 03:48:41;;;;;;;1.70;0.70;;;22.00;99.90;;;22.32;50.50;101289.88;4900656;28;111082;-46
2023/07/17 03:51:07;;;;;;;2.23;1.00;;;22.00;99.90;;;22.31;49.49;101289.03;4896950;28;97351;-44
2023/07/17 03:53:32;;;;;;;2.40;0.60;;;22.00;99.90;;;22.29;50.96;101284.75;4895168;28;97359;-45
2023/07/17 03:55:58;;;;;;;1.97;1.10;;;22.00;99.90;;;22.25;49.14;101289.47;4891485;28;115092;-44
2023/07/17 03:58:24;;;;;;;1.37;0.83;;;21.90;99.90;;;22.24;50.32;101299.34;4903194;28;97548;-42
2023/07/17 04:00:50;;;;;;;2.97;0.83;;;21.90;99.90;;;22.25;49.76;101303.75;4892467;28;97350;-44
2023/07/17 04:03:16;;;;;;;2.30;1.00;;;22.00;99.90;;;22.30;51.13;101302.59;4894188;28;111125;-42
2023/07/17 04:05:43;;;;;;;0.83;0.67;;;22.00;99.90;;;22.29;50.67;101301.72;4898311;28;99022;-46
2023/07/17 04:08:09;;;;;;;1.17;0.90;;;22.00;99.90;;;22.30;50.51;101305.28;4905212;28;97827;-42
2023/07/17 04:10:34;;;;;;;2.30;0.83;;;22.00;99.90;;;22.31;50.50;101304.28;4892648;28;107266;-44
2023/07/17 04:13:00;;;;;;;1.93;0.97;;;22.00;99.90;;;22.32;50.52;101311.38;4900259;28;97062;-46
2023/07/17 04:15:27;;;;;;;1.70;0.80;;;22.10;99.90;;;22.28;49.08;101305.38;4896885;28;97153;-44
2023/07/17 04:17:52;;;;;;;1.00;0.80;;;22.00;99.90;;;22.29;49.41;101317.84;4897567;28;97201;-43
2023/07/17 04:20:19;;;;;;;3.93;1.00;;;22.00;99.90;;;22.29;50.28;101311.63;4887417;28;96832;-43
2023/07/17 04:22:44;;;;;;;1.90;0.90;;;22.00;99.90;;;22.26;50.58;101308.16;4900423;28;97152;-43
2023/07/17 04:25:10;;;;;;;1.53;1.10;;;21.90;99.90;;;22.25;49.48;101313.66;4903806;28;111958;-43
2023/07/17 04:27:36;;;;;;;1.37;0.83;;;21.90;99.90;;;22.24;50.98;101315.47;4892690;28;104645;-42
2023/07/17 04:30:02;;;;;;;1.77;0.90;;;21.90;99.90;;;22.23;49.40;101319.16;4888298;28;97208;-45
2023/07/17 04:32:28;;;;;;;1.27;0.90;;;21.90;99.90;;;22.21;48.97;101321.09;4905465;28;97936;-45
2023/07/17 04:34:53;;;;;;;1.67;0.70;;;21.90;99.90;;;22.23;49.19;101324.53;4891904;28;103330;-46
2023/07/17 04:37:19;;;;;;;1.80;0.97;;;21.90;99.90;;;22.20;50.18;101329.28;4897723;28;102582;-42
2023/07/17 04:39:45;;;;;;;1.50;0.70;;;21.80;99.90;;;22.14;49.16;101335.97;4890312;28;97441;-42
2023/07/17 04:42:11;;;;;;;2.77;1.33;;;21.80;99.90;;;22.15;50.69;101324.25;4891617;28;105168;-43
2023/07/17 04:44:36;;;;;;;1.87;0.97;;;21.80;99.90;;;22.12;49.65;101337.88;4897946;28;98327;-43
2023/07/17 04:47:02;;;;;;;1.43;0.87;;;21.70;99.90;;;22.13;51.62;101334.25;4906430;28;97621;-42
2023/07/17 04:49:28;;;;;;;1.40;1.00;;;21.80;99.90;;;22.12;49.98;101348.63;4893684;28;97604;-44
2023/07/17 04:51:54;;;;;;;2.83;0.60;;;21.80;99.90;;;22.12;51.15;101347.78;4894270;28;105090;-42
2023/07/17 04:54:20;;;;;;;2.07;0.90;;;21.80;99.90;;;22.15;51.52;101343.06;4900237;28;97302;-44
2023/07/17 04:56:45;;;;;;;1.63;1.03;;;21.80;99.90;;;22.15;49.68;101350.25;4890551;28;96990;-45
2023/07/17 04:59:11;;;;;;;2.10;0.90;;;21.80;99.90;;;22.13;51.24;101350.38;4898354;28;97278;-43
2023/07/17 05:01:37;;;;;;;4.33;1.00;;;21.80;99.90;;;22.07;49.39;101355.31;4897693;28;98165;-46
2023/07/17 05:04:03;;;;;;;2.33;0.93;;;21.80;99.90;;;22.08;50.19;101351.66;4896230;28;104273;-42
2023/07/17 05:06:29;;;;;;;0.90;0.70;;;21.80;99.90;;;22.07;51.33;101366.91;4891027;28;98216;-43
2023/07/17 05:08:55;;;;;;;1.83;0.90;;;21.70;99.90;;;22.09;51.02;101369.50;4907619;28;97480;-45
2023/07/17 05:11:21;;;;;;;1.63;0.80;;;21.80;99.90;;;22.08;50.53;101365.94;4898658;28;97830;-42
2023/07/17 05:13:46;;;;;;;1.07;0.97;;;21.80;99.90;;;22.07;50.09;101371.44;4896568;28;105238;-42
2023/07/17 05:16:12;;;;;;;1.40;0.83;;;21.70;99.90;;;21.99;49.43;101371.97;4903063;28;99952;-44
2023/07/17 05:18:38;;;;;;;1.50;0.73;;;21.60;99.90;;;21.93;49.97;101364.34;4890996;28;97329;-44
2023/07/17 05:21:04;;;;;;;2.20;1.00;;;21.50;99.90;;;21.92;50.18;101373.38;4897621;28;97556;-46
2023/07/17 05:23:30;;;;;;;1.13;0.80;;;21.50;99.90;;;21.85;49.78;101370.28;4895260;28;97577;-44
2023/07/17 05:25:59;;;;;;;2.03;0.93;;;21.50;99.90;;;21.83;49.88;101376.69;4898504;28;97417;-45
2023/07/17 05:28:25;;;;;;;1.20;0.67;;;21.40;99.90;;;21.75;50.19;101371.91;4889184;28;98606;-45
2023/07/17 05:30:55;;;;;;;1.20;0.93;;;21.40;99.90;;;21.77;51.32;101377.16;4895720;28;97384;-46
2023/07/17 05:33:23;;;;;;;0.63;0.60;;;21.30;99.90;;;21.71;49.92;101372.22;4899690;28;97582;-44
2023/07/17 05:35:50;;;;;;;1.13;0.80;;;21.30;99.90;;;21.67;50.01;101376.94;4895162;28;97413;-45
2023/07/17 05:38:15;;;;;;;2.27;0.80;;;21.30;99.90;;;21.69;51.61;101373.16;4888249;28;97521;-43
2023/07/17 05:40:41;;;;;;;2.17;0.90;;;21.30;99.90;;;21.68;50.74;101379.50;4891408;28;97193;-45
2023/07/17 05:43:08;;;;;;;3.83;0.57;;;21.30;99.90;;;21.70;50.51;101376.75;4895193;28;97575;-42
2023/07/17 05:45:34;;;;;;;2.10;0.90;;;21.30;99.90;;;21.64;50.17;101379.84;4902188;28;97734;-42
2023/07/17 05:48:00;;;;;;;1.57;0.80;;;21.30;99.90;;;21.61;50.30;101386.28;4891902;28;97831;-42
2023/07/17 05:50:26;;;;;;;3.40;1.07;;;21.30;99.90;;;21.59;50.10;101393.59;4889747;28;97097;-45
2023/07/17 05:52:52;;;;;;;0.87;0.50;;;21.30;99.90;;;21.61;50.07;101394.34;4898520;28;98189;-45
2023/07/17 05:55:18;;;;;;;2.67;0.90;;;21.30;99.90;;;21.60;51.04;101400.69;4901152;28;97465;-43
2023/07/17 05:57:44;;;;;;;1.43;0.70;;;21.30;99.90;;;21.55;50.30;101407.31;4894114;28;97269;-45
2023/07/17 06:00:14;;;;;;;1.80;0.90;;;21.20;99.90;;;21.61;51.27;101413.13;4900503;28;97240;-47
2023/07/17 06:02:41;;;;;;;1.53;0.87;;;21.30;99.90;;;21.64;52.48;101407.53;4899658;28;102097;-54
2023/07/17 06:05:08;;;;;;;1.60;1.03;;;21.30;99.90;;;21.63;52.34;101410.34;4893654;28;101891;-44
2023/07/17 06:07:34;;;;;;;2.67;0.77;;;21.30;99.90;;;21.64;52.02;101412.06;4896961;28;97244;-44
2023/07/17 06:10:00;;;;;;;2.80;1.17;;;21.30;99.90;;;21.64;49.61;101422.78;4899486;28;99801;-45
2023/07/17 06:12:26;;;;;;;3.47;0.83;;;21.30;99.90;;;21.63;49.85;101421.09;4895317;28;97310;-44
2023/07/17 06:14:52;;;;;;;2.33;1.10;;;21.30;99.90;;;21.57;49.20;101418.84;4894125;28;97454;-46
2023/07/17 06:17:17;;;;;;;2.47;1.10;;;21.20;99.90;;;21.57;49.80;101421.53;4899160;28;101375;-42
2023/07/17 06:19:43;;;;;;;3.97;1.27;;;21.20;99.90;;;21.53;50.71;101431.59;4896259;28;97724;-42
2023/07/17 06:22:09;;;;;;;3.50;1.33;;;21.20;99.90;;;21.59;50.63;101428.50;4901855;28;108503;-46
2023/07/17 06:24:35;;;;;;;1.43;1.00;;;21.30;99.90;;;21.51;48.09;101438.03;4897978;28;102709;-43
2023/07/17 06:27:02;;;;;;;4.20;1.30;;;21.20;99.90;;;21.51;51.02;101436.22;4895940;28;97493;-45
2023/07/17 06:29:28;;;;;;;3.33;1.20;;;21.20;99.90;;;21.51;47.88;101438.03;4895742;28;97884;-44
2023/07/17 06:31:54;;;;;;;1.20;0.97;;;21.20;99.90;;;21.51;49.29;101433.53;4895485;28;103749;-44
2023/07/17 06:34:20;;;;;;;1.63;1.10;;;21.10;99.90;;;21.46;47.82;101441.03;4901356;28;98688;-43
2023/07/17 06:36:46;;;;;;;1.83;1.43;;;21.10;99.90;;;21.46;48.65;101443.72;4894985;28;97646;-45
2023/07/17 06:39:13;;;;;;;3.63;1.43;;;21.10;99.90;;;21.45;48.17;101444.69;4897123;28;97067;-43
2023/07/17 06:41:39;;;;;;;3.33;1.20;;;21.10;99.90;;;21.43;48.52;101452.00;4897487;28;98142;-45
2023/07/17 06:44:04;;;;;;;4.80;1.30;;;21.10;99.90;;;21.46;49.27;101450.94;4893692;28;99701;-44
2023/07/17 06:46:30;;;;;;;3.90;1.20;;;21.10;99.90;;;21.45;48.45;101450.06;4900360;28;104232;-42
2023/07/17 06:48:56;;;;;;;2.93;1.60;;;21.10;99.90;;;21.52;52.23;101456.72;4900371;28;98331;-43
2023/07/17 06:51:22;;;;;;;3.33;1.47;;;21.20;99.90;;;21.50;48.54;101458.66;4898478;28;98915;-45
2023/07/17 06:53:48;;;;;;;2.60;1.07;;;21.20;99.90;;;21.49;47.32;101456.94;4900136;28;98303;-43
2023/07/17 06:56:14;;;;;;;4.33;1.33;;;21.30;99.90;;;21.46;47.08;101451.78;4895928;28;97031;-42
2023/07/17 06:58:40;;;;;;;3.60;1.00;;;21.20;99.90;;;21.47;47.17;101450.81;4898124;28;97053;-44
2023/07/17 07:01:06;;;;;;;2.40;1.43;;;21.20;99.90;;;21.50;47.75;101458.66;4901773;28;102126;-46
2023/07/17 07:03:32;;;;;;;1.90;1.23;;;21.20;99.90;;;21.57;51.25;101457.28;4895216;28;114011;-43
2023/07/17 07:06:00;;;;;;;3.33;1.50;;;21.30;99.90;;;21.56;47.74;101442.13;4901725;28;96963;-44
2023/07/17 07:08:29;;;;;;;4.33;1.67;;;21.40;99.90;;;21.58;46.57;101461.69;4905182;28;97324;-44
2023/07/17 07:10:57;;;;;;;4.80;1.53;;;21.40;99.90;;;21.63;46.58;101461.34;4899590;28;97115;-43
2023/07/17 07:13:23;;;;;;;3.40;1.77;;;21.40;99.90;;;21.66;48.59;101458.44;4902317;28;97206;-45
2023/07/17 07:15:50;;;;;;;5.13;1.40;;;21.40;99.90;;;21.62;45.50;101457.81;4904167;28;97000;-44
2023/07/17 07:18:17;;;;;;;3.43;1.90;;;21.40;99.90;;;21.66;46.67;101459.31;4898920;28;97404;-43
2023/07/17 07:20:44;;;;;;;1.63;1.10;;;21.40;99.90;;;21.72;48.34;101467.91;4900170;28;97418;-45
2023/07/17 07:23:11;;;;;;;4.00;1.47;;;21.40;99.90;;;21.66;47.23;101461.13;4905315;28;100789;-47
2023/07/17 07:25:37;;;;;;;2.80;1.50;;;21.40;99.90;;;21.63;47.85;101464.91;4914924;28;97681;-44
2023/07/17 07:28:03;;;;;;;3.77;2.00;;;21.40;99.90;;;21.69;45.66;101467.13;4905757;28;97515;-47
2023/07/17 07:30:29;;;;;;;4.77;1.80;;;21.50;99.90;;;21.67;45.43;101471.75;4901995;28;97355;-45
2023/07/17 07:32:56;;;;;;;3.47;1.90;;;21.50;99.90;;;21.66;44.90;101467.34;4896157;28;112122;-43
2023/07/17 07:35:21;;;;;;;2.77;1.50;;;21.50;99.90;;;21.66;45.02;101469.19;4892087;28;97652;-45
2023/07/17 07:37:47;;;;;;;3.27;1.47;;;21.50;99.90;;;21.68;46.00;101468.09;4898608;28;97093;-44
2023/07/17 07:40:14;;;;;;;5.10;1.70;;;21.50;99.90;;;21.63;47.71;101464.91;4899334;28;96788;-45
2023/07/17 07:42:44;;;;;;;3.93;1.80;;;21.40;99.90;;;21.68;45.89;101462.75;4898676;28;98712;-43
2023/07/17 07:45:11;;;;;;;2.17;1.30;;;21.50;99.90;;;21.80;45.92;101470.91;4896039;28;97625;-45
2023/07/17 07:47:38;;;;;;;5.50;1.53;;;21.60;99.90;;;21.84;46.99;101465.22;4894500;28;97204;-45
2023/07/17 07:50:06;;;;;;;6.60;1.87;;;21.70;99.90;;;21.88;46.24;101468.56;4901020;28;97750;-42
2023/07/17 07:52:32;;;;;;;3.97;1.80;;;21.70;99.90;;;21.92;47.58;101460.16;4892699;28;97353;-45
2023/07/17 07:54:57;;;;;;;2.30;1.40;;;21.70;99.90;;;21.90;48.76;101466.63;4889985;28;114074;-43
2023/07/17 07:57:23;;;;;;;3.83;1.70;;;21.70;99.90;;;21.93;48.53;101472.63;5396708;22;98497;-59
2023/07/17 07:59:50;;;;;;;3.27;1.10;;;21.70;99.90;;;22.01;45.62;101469.41;4899991;28;97837;-59
2023/07/17 08:02:17;;;;;;;3.00;1.43;;;21.80;99.90;;;22.08;48.85;101459.97;4901310;28;97133;-60
2023/07/17 08:04:43;;;;;;;5.60;1.53;;;21.90;99.90;;;22.11;46.00;101475.88;4916304;28;96924;-59
2023/07/17 08:07:10;;;;;;;3.00;1.97;;;22.00;99.90;;;22.13;44.79;101473.97;4885820;28;97567;-61
2023/07/17 08:09:36;;;;;;;1.83;1.20;;;22.00;99.90;;;22.13;44.76;101473.97;4893596;28;97410;-60
2023/07/17 08:12:02;;;;;;;2.87;1.80;;;22.00;99.90;;;22.20;46.32;101469.00;4873079;28;99224;-60
2023/07/17 08:14:28;;;;;;;5.50;1.73;;;22.00;99.90;;;22.18;44.42;101466.41;4902845;28;103478;-59
2023/07/17 08:16:54;;;;;;;3.33;1.60;;;22.10;99.90;;;22.24;46.73;101471.34;4902132;28;104357;-58
2023/07/17 08:19:21;;;;;;;3.43;1.50;;;22.10;99.90;;;22.25;47.31;101474.88;4902674;28;110913;-59
2023/07/17 08:21:47;;;;;;;6.03;1.57;;;22.10;99.90;;;22.29;45.22;101471.03;4901398;28;97295;-59
2023/07/17 08:24:13;;;;;;;2.23;1.20;;;22.10;99.90;;;22.32;43.68;101473.50;4904210;28;99217;-57
2023/07/17 08:26:39;;;;;;;2.40;1.33;;;22.10;99.90;;;22.32;47.29;101478.00;4904473;28;97492;-59
2023/07/17 08:29:06;;;;;;;3.93;1.73;;;22.20;99.90;;;22.39;43.55;101473.88;4900775;28;97971;-60
2023/07/17 08:31:32;;;;;;;4.33;1.60;;;22.20;99.90;;;22.33;42.78;101483.28;4897835;28;98500;-59
2023/07/17 08:34:00;;;;;;;3.47;1.70;;;22.20;99.90;;;22.36;47.46;101485.72;4903252;28;97120;-60
2023/07/17 08:36:27;;;;;;;3.20;1.50;;;22.20;99.90;;;22.34;43.57;101481.44;4901193;28;97754;-60
2023/07/17 08:38:53;;;;;;;3.67;1.50;;;22.30;99.90;;;22.36;47.56;101474.13;4895453;28;97608;-59
2023/07/17 08:41:20;;;;;;;4.67;1.73;;;22.20;99.90;;;22.42;45.07;101485.31;4899799;28;100613;-59
2023/07/17 08:43:48;;;;;;;2.97;1.63;;;22.30;99.90;;;22.46;42.14;101470.66;4893950;28;98503;-61
2023/07/17 08:46:14;;;;;;;5.53;1.73;;;22.30;99.70;;;22.45;42.65;101478.84;4901810;28;99956;-62
2023/07/17 08:48:45;;;;;;;5.30;1.73;;;22.30;99.90;;;22.38;42.48;101481.09;4891382;28;97328;-59
2023/07/17 08:51:12;;;;;;;2.60;1.53;;;22.30;99.90;;;22.31;42.25;101477.16;4891654;28;101745;-60
2023/07/17 08:53:45;;;;;;;5.27;1.70;;;22.20;99.60;;;22.27;42.31;101481.84;4916109;28;97553;-61
2023/07/17 08:56:11;;;;;;;3.67;1.37;;;22.10;99.70;;;22.32;42.60;101475.31;4895129;28;100919;-61
2023/07/17 08:58:40;;;;;;;3.37;1.60;;;22.20;99.90;;;22.42;43.77;101473.66;4892598;28;97057;-60
2023/07/17 09:01:07;;;;;;;2.93;1.33;;;22.30;99.90;;;22.42;45.06;101473.66;4901928;28;98703;-60
2023/07/17 09:03:36;;;;;;;3.17;1.83;;;22.30;99.90;;;22.37;42.38;101481.22;4897353;28;97548;-60
2023/07/17 09:06:03;;;;;;;4.70;1.77;;;22.30;99.50;;;22.40;42.60;101471.09;4893956;28;97429;-59
2023/07/17 09:08:29;;;;;;;3.60;1.60;;;22.30;99.50;;;22.44;42.31;101477.13;4899552;28;97767;-59
2023/07/17 09:11:07;;;;;;;3.23;1.60;;;22.30;99.60;;;22.43;42.00;101476.28;4899521;28;97420;-59
2023/07/17 09:13:44;;;;;;;3.33;1.57;;;22.30;99.40;;;22.40;42.32;101480.97;4898721;28;97518;-60
2023/07/17 09:16:20;;;;;;;3.43;1.80;;;22.30;99.60;;;22.50;42.86;101487.41;4898685;28;97550;-60
2023/07/17 09:18:48;;;;;;;4.83;1.70;;;22.40;99.90;;;22.56;42.30;101476.19;4903166;28;102306;-61
2023/07/17 09:21:17;;;;;;;3.13;1.80;;;22.50;99.60;;;22.58;42.42;101490.41;4896147;28;99623;-60
2023/07/17 09:23:52;;;;;;;3.37;1.80;;;22.50;99.50;;;22.56;42.32;101482.44;4897561;28;97879;-57
2023/07/17 09:26:20;;;;;;;4.90;1.93;;;22.50;99.40;;;22.57;42.09;101483.34;4894842;28;97472;-61
2023/07/17 09:28:55;;;;;;;2.60;1.70;;;22.50;99.20;;;22.60;42.82;101487.63;4901945;28;97655;-62
2023/07/17 09:31:31;;;;;;;2.03;1.17;;;22.50;99.60;;;22.70;42.13;101483.25;4903740;28;98474;-60
2023/07/17 09:34:05;;;;;;;5.33;1.43;;;22.60;99.30;;;22.70;42.23;101481.44;4903486;28;96806;-59
2023/07/17 09:36:31;;;;;;;2.70;1.50;;;22.60;99.30;;;22.73;41.81;101486.59;4905450;28;97271;-61
2023/07/17 09:38:58;;;;;;;5.07;1.60;;;22.60;99.00;;;22.80;41.94;101482.47;4904848;28;98600;-60
2023/07/17 09:41:28;;;;;;;3.73;1.73;;;22.70;99.10;;;22.76;42.93;101494.44;4915382;28;98388;-61
2023/07/17 09:44:18;;;;;;;3.17;1.60;;;22.70;99.40;;;22.77;40.86;101492.63;4905276;28;97277;-60
2023/07/17 09:46:45;;;;;;;9.73;1.60;;;22.70;97.60;;;22.77;40.80;101490.78;4904346;28;97700;-58
2023/07/17 09:49:11;;;;;;;5.83;1.77;;;22.70;97.70;;;22.82;41.52;101494.00;4886085;28;107689;-58
2023/07/17 09:51:37;;;;;;;2.27;1.43;;;22.80;98.30;;;22.87;41.70;101493.69;4891639;28;112407;-60
2023/07/17 09:54:03;;;;;;;4.43;1.60;;;22.80;98.50;;;22.83;40.94;101490.34;4896766;28;97316;-59
2023/07/17 09:56:32;;;;;;;4.50;2.00;;;22.80;97.90;;;22.85;40.63;101488.41;4903614;28;98670;-58
2023/07/17 09:59:17;;;;;;;2.90;1.60;;;22.80;97.60;;;22.88;42.62;101497.25;4902907;28;97814;-61
2023/07/17 10:01:47;;;;;;;2.57;1.73;;;22.80;99.30;;;22.83;42.25;101509.19;4901774;28;102203;-61
2023/07/17 10:04:26;;;;;;;6.10;1.83;;;22.80;99.00;;;22.89;42.72;101501.66;4896713;28;97582;-62
2023/07/17 10:06:54;;;;;;;2.47;1.30;;;22.80;99.20;;;22.91;42.28;101494.31;4899533;28;97692;-60
2023/07/17 10:09:21;;;;;;;3.40;1.50;;;22.80;99.10;;;22.84;42.09;101497.44;4893061;28;98813;-60